• Join FlightAware (Why Join?)
  • Login
  • US Flag 
12:19AM EDT


 

Airport Tracker/Info


-or-


 

Live Flight TrackerFlight Track Log ✈ N775NC ✈ 16-Aug-2013 ✈ KBHM - KATL

Flight Track Log - Related Links

Times and Time Zones

All times are in EDT time to prevent confusion due to time zone crossing. See the N775NC flight status page for this flight to view local times or setup timezone preferences in your user account.

Time Position Orientation Groundspeed Altitude Reporting Facility
EDT Latitude Longitude Course Direction KTS MPH feet Rate Location/Type
06:22PM 33.5725 -86.7439 140° Southeast 158 182 1,500  Level Atlanta Center
06:22PM 33.6028 -86.7000 50° Northeast 211 243 3,400 1,800 Climbing Atlanta Center
06:24PM 33.5778 -86.5944 106° East 282 325 5,700 2,100 Climbing Atlanta Center
06:25PM 33.5775 -86.4056 140° Southeast  Level Estimated
06:25PM 33.5075 -86.5650 161° South 267 307 8,700  Level Atlanta Center
06:26PM 33.5057 -86.4154 186° South  Level FlightAware Approximate
06:26PM 33.4264 -86.5528 173° South 268 308 10,400  Level Atlanta Center
06:27PM 33.5120 -86.3290 140° Southeast  Level Estimated
06:27PM 33.3675 -86.4739 132° Southeast 291 335 11,900  Level Atlanta Center
06:28PM 33.3528 -86.3592 99° East 295 339 13,600 1,860 Climbing Atlanta Center
06:29PM 33.3364 -86.2319 99° East 349 402 15,700 1,800 Climbing Atlanta Center
06:30PM 33.3072 -86.1019 105° East 373 429 17,200 1,380 Climbing Atlanta Center
06:31PM 33.2719 -85.9644 107° East 406 467 18,500 1,560 Climbing Atlanta Center
06:32PM 33.2386 -85.8244 106° East 426 490 20,400 1,200 Climbing Atlanta Center
06:33PM 33.2197 -85.6828 99° East 431 496 21,000 -300 Climbing Atlanta Center
06:34PM 33.2111 -85.5311 94° East 449 517 19,800 -1,980 Descending Atlanta Center
06:35PM 33.2047 -85.3819 93° East 429 494 17,100 -3,060 Descending Atlanta Center
06:36PM 33.1997 -85.2453 92° East 414 476 13,700 -2,580 Descending Atlanta Center
06:37PM 33.1967 -85.1186 92° East 404 465 12,000 -900 Descending Atlanta Center
06:38PM 33.2039 -85.0144 85° East 338 389 12,000 -780 Level Atlanta Center
06:39PM 33.2544 -84.9581 43° Northeast 277 319 10,500 -1,560 Descending Atlanta Center
06:40PM 33.3358 -84.9414 10° North 256 295 8,900 -1,320 Descending Atlanta Center
06:41PM 33.4111 -84.9522 353° North 256 295 7,900 -480 Descending Atlanta Center
06:42PM 33.4842 -84.9356 11° North 256 295 8,000 -360 Climbing Atlanta Center
06:43PM 33.5594 -84.9089 16° North 266 306 7,200 -540 Descending Atlanta Center
06:44PM 33.6203 -84.8669 30° Northeast 255 293 7,000 -300 Descending Atlanta Center
06:44PM 33.6333 -84.8167 73° East 227 261 6,800 -840 Descending Atlanta TRACON
06:45PM 33.6333 -84.7500 90° East 215 247 5,700 -1,080 Descending Atlanta TRACON
06:46PM 33.6333 -84.6833 90° East 180 207 4,700 -960 Descending Atlanta TRACON
06:47PM 33.6333 -84.6167 90° East 177 204 3,800 -900 Descending Atlanta TRACON
06:48PM 33.6333 -84.5667 90° East 165 190 2,900 -900 Descending Atlanta TRACON
06:49PM 33.6333 -84.5167 90° East 134 154 2,000 -780 Descending Atlanta TRACON
06:50PM 33.6333 -84.4667 90° East 131 151 1,400 -720 Descending Atlanta TRACON